sensor_id;sensor_type;location;lat;lon;timestamp;temperature;humidity
37456;DHT22;23316;50.718;7.328;2024-02-04T00:01:46;22.10;36.80
37456;DHT22;23316;50.718;7.328;2024-02-04T00:04:13;22.10;36.80
37456;DHT22;23316;50.718;7.328;2024-02-04T00:06:41;22.00;36.70
37456;DHT22;23316;50.718;7.328;2024-02-04T00:09:08;22.00;36.80
37456;DHT22;23316;50.718;7.328;2024-02-04T00:11:35;22.00;36.70
37456;DHT22;23316;50.718;7.328;2024-02-04T00:14:02;22.00;36.70
37456;DHT22;23316;50.718;7.328;2024-02-04T00:16:31;22.00;36.70
37456;DHT22;23316;50.718;7.328;2024-02-04T00:18:58;22.00;36.70
37456;DHT22;23316;50.718;7.328;2024-02-04T00:21:25;22.00;36.70
37456;DHT22;23316;50.718;7.328;2024-02-04T00:23:52;22.00;36.70
37456;DHT22;23316;50.718;7.328;2024-02-04T00:26:19;22.00;36.70
37456;DHT22;23316;50.718;7.328;2024-02-04T00:28:46;21.90;36.70
37456;DHT22;23316;50.718;7.328;2024-02-04T00:31:13;22.00;36.80
37456;DHT22;23316;50.718;7.328;2024-02-04T00:33:42;21.90;36.80
37456;DHT22;23316;50.718;7.328;2024-02-04T00:36:09;21.90;36.70
37456;DHT22;23316;50.718;7.328;2024-02-04T00:38:36;21.90;36.70
37456;DHT22;23316;50.718;7.328;2024-02-04T00:41:04;21.90;36.80
37456;DHT22;23316;50.718;7.328;2024-02-04T00:43:31;21.90;36.90
37456;DHT22;23316;50.718;7.328;2024-02-04T00:45:58;21.90;36.90
37456;DHT22;23316;50.718;7.328;2024-02-04T00:48:27;21.90;36.90
37456;DHT22;23316;50.718;7.328;2024-02-04T00:50:54;22.00;37.00
37456;DHT22;23316;50.718;7.328;2024-02-04T00:53:21;22.00;37.00
37456;DHT22;23316;50.718;7.328;2024-02-04T00:55:49;22.00;37.00
37456;DHT22;23316;50.718;7.328;2024-02-04T00:58:16;22.10;37.00
37456;DHT22;23316;50.718;7.328;2024-02-04T01:00:43;22.10;37.50
37456;DHT22;23316;50.718;7.328;2024-02-04T01:03:10;22.20;36.90
37456;DHT22;23316;50.718;7.328;2024-02-04T01:05:37;22.20;36.80
37456;DHT22;23316;50.718;7.328;2024-02-04T01:08:06;22.30;36.90
37456;DHT22;23316;50.718;7.328;2024-02-04T01:10:33;22.30;36.80
37456;DHT22;23316;50.718;7.328;2024-02-04T01:13:00;22.30;36.70
37456;DHT22;23316;50.718;7.328;2024-02-04T01:15:27;22.30;36.70
37456;DHT22;23316;50.718;7.328;2024-02-04T01:17:54;22.30;36.70
37456;DHT22;23316;50.718;7.328;2024-02-04T01:20:22;22.30;36.70
37456;DHT22;23316;50.718;7.328;2024-02-04T01:22:49;22.30;36.60
37456;DHT22;23316;50.718;7.328;2024-02-04T01:25:17;22.30;36.60
37456;DHT22;23316;50.718;7.328;2024-02-04T01:27:44;22.30;36.60
37456;DHT22;23316;50.718;7.328;2024-02-04T01:30:12;22.40;36.70
37456;DHT22;23316;50.718;7.328;2024-02-04T01:32:39;22.30;36.60
37456;DHT22;23316;50.718;7.328;2024-02-04T01:35:07;22.30;36.60
37456;DHT22;23316;50.718;7.328;2024-02-04T01:37:34;22.30;36.60
37456;DHT22;23316;50.718;7.328;2024-02-04T01:40:02;22.30;36.60
37456;DHT22;23316;50.718;7.328;2024-02-04T01:42:31;22.30;36.70
37456;DHT22;23316;50.718;7.328;2024-02-04T01:44:58;22.30;36.60
37456;DHT22;23316;50.718;7.328;2024-02-04T01:47:25;22.30;36.60
37456;DHT22;23316;50.718;7.328;2024-02-04T01:49:52;22.20;36.60
37456;DHT22;23316;50.718;7.328;2024-02-04T01:52:19;22.20;36.60
37456;DHT22;23316;50.718;7.328;2024-02-04T01:54:47;22.20;36.70
37456;DHT22;23316;50.718;7.328;2024-02-04T01:57:14;22.20;36.70
37456;DHT22;23316;50.718;7.328;2024-02-04T01:59:44;22.20;36.70
37456;DHT22;23316;50.718;7.328;2024-02-04T02:02:12;22.20;36.70
37456;DHT22;23316;50.718;7.328;2024-02-04T02:04:39;22.20;36.70
37456;DHT22;23316;50.718;7.328;2024-02-04T02:07:07;22.10;36.70
37456;DHT22;23316;50.718;7.328;2024-02-04T02:09:34;22.10;36.70
37456;DHT22;23316;50.718;7.328;2024-02-04T02:12:07;22.10;36.70
37456;DHT22;23316;50.718;7.328;2024-02-04T02:14:38;22.10;36.70
37456;DHT22;23316;50.718;7.328;2024-02-04T02:17:11;22.10;36.70
37456;DHT22;23316;50.718;7.328;2024-02-04T02:19:47;22.20;36.80
37456;DHT22;23316;50.718;7.328;2024-02-04T02:22:25;22.30;36.70
37456;DHT22;23316;50.718;7.328;2024-02-04T02:24:56;22.30;36.60
37456;DHT22;23316;50.718;7.328;2024-02-04T02:27:25;22.30;36.60
37456;DHT22;23316;50.718;7.328;2024-02-04T02:29:52;22.30;36.60
37456;DHT22;23316;50.718;7.328;2024-02-04T02:32:19;22.40;36.50
37456;DHT22;23316;50.718;7.328;2024-02-04T02:34:46;22.40;36.50
37456;DHT22;23316;50.718;7.328;2024-02-04T02:37:32;22.40;36.50
37456;DHT22;23316;50.718;7.328;2024-02-04T02:40:09;22.40;36.50
37456;DHT22;23316;50.718;7.328;2024-02-04T02:42:38;22.40;36.40
37456;DHT22;23316;50.718;7.328;2024-02-04T02:45:09;22.40;36.40
37456;DHT22;23316;50.718;7.328;2024-02-04T02:47:38;22.40;36.40
37456;DHT22;23316;50.718;7.328;2024-02-04T02:50:07;22.40;36.40
37456;DHT22;23316;50.718;7.328;2024-02-04T02:52:34;22.40;36.40
37456;DHT22;23316;50.718;7.328;2024-02-04T02:55:02;22.40;36.40
37456;DHT22;23316;50.718;7.328;2024-02-04T02:57:30;22.40;36.40
37456;DHT22;23316;50.718;7.328;2024-02-04T02:59:58;22.30;36.40
37456;DHT22;23316;50.718;7.328;2024-02-04T03:02:25;22.30;36.40
37456;DHT22;23316;50.718;7.328;2024-02-04T03:04:52;22.40;36.40
37456;DHT22;23316;50.718;7.328;2024-02-04T03:07:19;22.40;36.40
37456;DHT22;23316;50.718;7.328;2024-02-04T03:09:46;22.30;36.40
37456;DHT22;23316;50.718;7.328;2024-02-04T03:12:13;22.30;36.40
37456;DHT22;23316;50.718;7.328;2024-02-04T03:14:42;22.30;36.40
37456;DHT22;23316;50.718;7.328;2024-02-04T03:17:09;22.30;36.40
37456;DHT22;23316;50.718;7.328;2024-02-04T03:19:38;22.30;36.50
37456;DHT22;23316;50.718;7.328;2024-02-04T03:22:05;22.20;36.50
37456;DHT22;23316;50.718;7.328;2024-02-04T03:24:32;22.20;36.50
37456;DHT22;23316;50.718;7.328;2024-02-04T03:26:59;22.20;36.50
37456;DHT22;23316;50.718;7.328;2024-02-04T03:29:26;22.20;36.60
37456;DHT22;23316;50.718;7.328;2024-02-04T03:31:55;22.20;36.60
37456;DHT22;23316;50.718;7.328;2024-02-04T03:34:23;22.10;36.50
37456;DHT22;23316;50.718;7.328;2024-02-04T03:36:50;22.20;36.60
37456;DHT22;23316;50.718;7.328;2024-02-04T03:39:17;22.20;36.60
37456;DHT22;23316;50.718;7.328;2024-02-04T03:41:44;22.30;36.60
37456;DHT22;23316;50.718;7.328;2024-02-04T03:44:11;22.30;36.60
37456;DHT22;23316;50.718;7.328;2024-02-04T03:46:39;22.30;36.50
37456;DHT22;23316;50.718;7.328;2024-02-04T03:49:08;22.40;36.50
37456;DHT22;23316;50.718;7.328;2024-02-04T03:51:35;22.40;36.50
37456;DHT22;23316;50.718;7.328;2024-02-04T03:54:02;22.40;36.40
37456;DHT22;23316;50.718;7.328;2024-02-04T03:56:29;22.40;36.40
37456;DHT22;23316;50.718;7.328;2024-02-04T03:58:56;22.50;36.40
37456;DHT22;23316;50.718;7.328;2024-02-04T04:01:24;22.50;36.40
37456;DHT22;23316;50.718;7.328;2024-02-04T04:03:51;22.50;36.40
37456;DHT22;23316;50.718;7.328;2024-02-04T04:06:19;22.50;36.40
37456;DHT22;23316;50.718;7.328;2024-02-04T04:08:46;22.50;36.40
37456;DHT22;23316;50.718;7.328;2024-02-04T04:11:14;22.40;36.40
37456;DHT22;23316;50.718;7.328;2024-02-04T04:13:41;22.40;36.30
37456;DHT22;23316;50.718;7.328;2024-02-04T04:16:08;22.40;36.40
37456;DHT22;23316;50.718;7.328;2024-02-04T04:18:35;22.40;36.40
37456;DHT22;23316;50.718;7.328;2024-02-04T04:21:03;22.40;36.40
37456;DHT22;23316;50.718;7.328;2024-02-04T04:23:31;22.40;36.40
37456;DHT22;23316;50.718;7.328;2024-02-04T04:25:58;22.30;36.40
37456;DHT22;23316;50.718;7.328;2024-02-04T04:28:26;22.40;36.40
37456;DHT22;23316;50.718;7.328;2024-02-04T04:30:53;22.30;36.40
37456;DHT22;23316;50.718;7.328;2024-02-04T04:33:20;22.30;36.40
37456;DHT22;23316;50.718;7.328;2024-02-04T04:35:47;22.30;36.40
37456;DHT22;23316;50.718;7.328;2024-02-04T04:38:15;22.30;36.40
37456;DHT22;23316;50.718;7.328;2024-02-04T04:40:43;22.30;36.50
37456;DHT22;23316;50.718;7.328;2024-02-04T04:43:10;22.30;36.50
37456;DHT22;23316;50.718;7.328;2024-02-04T04:45:38;22.20;36.50
37456;DHT22;23316;50.718;7.328;2024-02-04T04:48:05;22.20;36.50
37456;DHT22;23316;50.718;7.328;2024-02-04T04:50:33;22.20;36.50
37456;DHT22;23316;50.718;7.328;2024-02-04T04:53:00;22.20;36.60
37456;DHT22;23316;50.718;7.328;2024-02-04T04:55:28;22.20;36.60
37456;DHT22;23316;50.718;7.328;2024-02-04T04:57:56;22.20;36.60
37456;DHT22;23316;50.718;7.328;2024-02-04T05:00:24;22.20;36.60
37456;DHT22;23316;50.718;7.328;2024-02-04T05:02:51;22.30;36.60
37456;DHT22;23316;50.718;7.328;2024-02-04T05:05:19;22.40;36.60
37456;DHT22;23316;50.718;7.328;2024-02-04T05:07:46;22.40;36.60
37456;DHT22;23316;50.718;7.328;2024-02-04T05:10:14;22.40;36.50
37456;DHT22;23316;50.718;7.328;2024-02-04T05:12:41;22.50;36.50
37456;DHT22;23316;50.718;7.328;2024-02-04T05:15:10;22.50;36.40
37456;DHT22;23316;50.718;7.328;2024-02-04T05:17:37;22.50;36.40
37456;DHT22;23316;50.718;7.328;2024-02-04T05:20:05;22.50;36.40
37456;DHT22;23316;50.718;7.328;2024-02-04T05:22:33;22.50;36.30
37456;DHT22;23316;50.718;7.328;2024-02-04T05:25:00;22.50;36.30
37456;DHT22;23316;50.718;7.328;2024-02-04T05:27:28;22.50;36.30
37456;DHT22;23316;50.718;7.328;2024-02-04T05:29:55;22.50;36.30
37456;DHT22;23316;50.718;7.328;2024-02-04T05:32:24;22.50;36.30
37456;DHT22;23316;50.718;7.328;2024-02-04T05:34:51;22.50;36.30
37456;DHT22;23316;50.718;7.328;2024-02-04T05:37:18;22.50;36.30
37456;DHT22;23316;50.718;7.328;2024-02-04T05:39:46;22.50;36.40
37456;DHT22;23316;50.718;7.328;2024-02-04T05:42:13;22.50;36.40
37456;DHT22;23316;50.718;7.328;2024-02-04T05:44:40;22.50;36.40
37456;DHT22;23316;50.718;7.328;2024-02-04T05:47:07;22.40;36.30
37456;DHT22;23316;50.718;7.328;2024-02-04T05:49:36;22.40;36.30
37456;DHT22;23316;50.718;7.328;2024-02-04T05:52:04;22.40;36.30
37456;DHT22;23316;50.718;7.328;2024-02-04T05:54:31;22.40;36.40
37456;DHT22;23316;50.718;7.328;2024-02-04T05:56:59;22.30;36.30
37456;DHT22;23316;50.718;7.328;2024-02-04T05:59:26;22.30;36.30
37456;DHT22;23316;50.718;7.328;2024-02-04T06:01:53;22.30;36.40
37456;DHT22;23316;50.718;7.328;2024-02-04T06:04:20;22.40;36.40
37456;DHT22;23316;50.718;7.328;2024-02-04T06:06:49;22.30;36.40
37456;DHT22;23316;50.718;7.328;2024-02-04T06:09:16;22.30;36.40
37456;DHT22;23316;50.718;7.328;2024-02-04T06:11:45;22.30;36.40
37456;DHT22;23316;50.718;7.328;2024-02-04T06:14:12;22.20;36.30
37456;DHT22;23316;50.718;7.328;2024-02-04T06:16:39;22.20;36.30
37456;DHT22;23316;50.718;7.328;2024-02-04T06:19:07;22.20;36.40
37456;DHT22;23316;50.718;7.328;2024-02-04T06:21:35;22.20;36.40
37456;DHT22;23316;50.718;7.328;2024-02-04T06:24:04;22.30;36.60
37456;DHT22;23316;50.718;7.328;2024-02-04T06:26:31;22.30;36.60
37456;DHT22;23316;50.718;7.328;2024-02-04T06:28:58;22.30;36.60
37456;DHT22;23316;50.718;7.328;2024-02-04T06:31:25;22.30;36.50
37456;DHT22;23316;50.718;7.328;2024-02-04T06:33:52;22.30;36.50
37456;DHT22;23316;50.718;7.328;2024-02-04T06:36:20;22.40;36.50
37456;DHT22;23316;50.718;7.328;2024-02-04T06:38:47;22.40;36.40
37456;DHT22;23316;50.718;7.328;2024-02-04T06:41:16;22.50;36.50
37456;DHT22;23316;50.718;7.328;2024-02-04T06:43:43;22.40;36.40
37456;DHT22;23316;50.718;7.328;2024-02-04T06:46:10;22.50;36.40
37456;DHT22;23316;50.718;7.328;2024-02-04T06:48:37;22.50;36.40
37456;DHT22;23316;50.718;7.328;2024-02-04T06:51:05;22.50;36.40
37456;DHT22;23316;50.718;7.328;2024-02-04T06:53:32;22.50;36.40
37456;DHT22;23316;50.718;7.328;2024-02-04T06:55:59;22.50;36.40
37456;DHT22;23316;50.718;7.328;2024-02-04T06:58:28;22.50;36.40
37456;DHT22;23316;50.718;7.328;2024-02-04T07:00:55;22.50;36.40
37456;DHT22;23316;50.718;7.328;2024-02-04T07:03:22;22.40;36.40
37456;DHT22;23316;50.718;7.328;2024-02-04T07:05:50;22.40;36.40
37456;DHT22;23316;50.718;7.328;2024-02-04T07:08:17;22.50;36.40
37456;DHT22;23316;50.718;7.328;2024-02-04T07:10:44;22.40;36.40
37456;DHT22;23316;50.718;7.328;2024-02-04T07:13:11;22.40;36.40
37456;DHT22;23316;50.718;7.328;2024-02-04T07:15:40;22.40;36.40
37456;DHT22;23316;50.718;7.328;2024-02-04T07:18:07;22.40;36.40
37456;DHT22;23316;50.718;7.328;2024-02-04T07:20:34;22.40;36.40
37456;DHT22;23316;50.718;7.328;2024-02-04T07:23:02;22.40;36.50
37456;DHT22;23316;50.718;7.328;2024-02-04T07:25:29;22.40;36.40
37456;DHT22;23316;50.718;7.328;2024-02-04T07:27:57;22.30;36.50
37456;DHT22;23316;50.718;7.328;2024-02-04T07:30:24;22.30;36.50
37456;DHT22;23316;50.718;7.328;2024-02-04T07:32:53;22.30;36.50
37456;DHT22;23316;50.718;7.328;2024-02-04T07:35:20;22.30;36.60
37456;DHT22;23316;50.718;7.328;2024-02-04T07:37:48;22.30;36.60
37456;DHT22;23316;50.718;7.328;2024-02-04T07:40:15;22.20;36.60
37456;DHT22;23316;50.718;7.328;2024-02-04T07:42:42;22.20;36.60
37456;DHT22;23316;50.718;7.328;2024-02-04T07:45:10;22.20;36.70
37456;DHT22;23316;50.718;7.328;2024-02-04T07:47:37;22.20;36.70
37456;DHT22;23316;50.718;7.328;2024-02-04T07:50:07;22.30;36.70
37456;DHT22;23316;50.718;7.328;2024-02-04T07:52:34;22.30;36.70
37456;DHT22;23316;50.718;7.328;2024-02-04T07:55:02;22.30;36.60
37456;DHT22;23316;50.718;7.328;2024-02-04T07:57:29;22.40;36.60
37456;DHT22;23316;50.718;7.328;2024-02-04T07:59:57;22.40;36.50
37456;DHT22;23316;50.718;7.328;2024-02-04T08:02:24;22.50;36.50
37456;DHT22;23316;50.718;7.328;2024-02-04T08:04:51;22.50;36.50
37456;DHT22;23316;50.718;7.328;2024-02-04T08:07:20;22.50;36.50
37456;DHT22;23316;50.718;7.328;2024-02-04T08:09:47;22.50;36.60
37456;DHT22;23316;50.718;7.328;2024-02-04T08:12:16;22.50;36.70
37456;DHT22;23316;50.718;7.328;2024-02-04T08:14:43;22.60;36.80
37456;DHT22;23316;50.718;7.328;2024-02-04T08:17:11;22.50;36.70
37456;DHT22;23316;50.718;7.328;2024-02-04T08:19:38;22.60;36.60
37456;DHT22;23316;50.718;7.328;2024-02-04T08:22:05;22.50;36.40
37456;DHT22;23316;50.718;7.328;2024-02-04T08:24:34;22.60;36.40
37456;DHT22;23316;50.718;7.328;2024-02-04T08:27:02;22.60;36.40
37456;DHT22;23316;50.718;7.328;2024-02-04T08:29:30;22.60;36.40
37456;DHT22;23316;50.718;7.328;2024-02-04T08:31:57;22.60;36.50
37456;DHT22;23316;50.718;7.328;2024-02-04T08:34:24;22.50;36.50
37456;DHT22;23316;50.718;7.328;2024-02-04T08:36:52;22.50;36.50
37456;DHT22;23316;50.718;7.328;2024-02-04T08:39:19;22.50;36.50
37456;DHT22;23316;50.718;7.328;2024-02-04T08:41:48;22.50;36.50
37456;DHT22;23316;50.718;7.328;2024-02-04T08:44:15;22.50;36.50
37456;DHT22;23316;50.718;7.328;2024-02-04T08:46:42;22.50;36.50
37456;DHT22;23316;50.718;7.328;2024-02-04T08:49:10;22.50;36.50
37456;DHT22;23316;50.718;7.328;2024-02-04T08:51:37;22.50;36.50
37456;DHT22;23316;50.718;7.328;2024-02-04T08:54:04;22.40;36.50
37456;DHT22;23316;50.718;7.328;2024-02-04T08:56:31;22.40;36.50
37456;DHT22;23316;50.718;7.328;2024-02-04T08:59:00;22.40;36.60
37456;DHT22;23316;50.718;7.328;2024-02-04T09:01:28;22.40;36.60
37456;DHT22;23316;50.718;7.328;2024-02-04T09:03:55;22.30;36.60
37456;DHT22;23316;50.718;7.328;2024-02-04T09:06:22;22.30;36.60
37456;DHT22;23316;50.718;7.328;2024-02-04T09:08:50;22.30;36.60
37456;DHT22;23316;50.718;7.328;2024-02-04T09:11:18;22.30;36.60
37456;DHT22;23316;50.718;7.328;2024-02-04T09:13:46;22.30;36.60
37456;DHT22;23316;50.718;7.328;2024-02-04T09:16:15;22.30;36.60
37456;DHT22;23316;50.718;7.328;2024-02-04T09:18:43;22.30;36.50
37456;DHT22;23316;50.718;7.328;2024-02-04T09:21:11;22.30;36.50
37456;DHT22;23316;50.718;7.328;2024-02-04T09:23:39;22.40;36.50
37456;DHT22;23316;50.718;7.328;2024-02-04T09:26:06;22.40;36.50
37456;DHT22;23316;50.718;7.328;2024-02-04T09:28:33;22.50;36.40
37456;DHT22;23316;50.718;7.328;2024-02-04T09:31:00;22.50;36.40
37456;DHT22;23316;50.718;7.328;2024-02-04T09:33:30;22.50;36.30
37456;DHT22;23316;50.718;7.328;2024-02-04T09:35:58;22.50;36.30
37456;DHT22;23316;50.718;7.328;2024-02-04T09:38:25;22.50;36.30
37456;DHT22;23316;50.718;7.328;2024-02-04T09:40:52;22.50;36.30
37456;DHT22;23316;50.718;7.328;2024-02-04T09:43:20;22.50;36.80
37456;DHT22;23316;50.718;7.328;2024-02-04T09:45:48;22.50;36.20
37456;DHT22;23316;50.718;7.328;2024-02-04T09:48:18;22.50;36.20
37456;DHT22;23316;50.718;7.328;2024-02-04T09:50:48;22.50;36.20
37456;DHT22;23316;50.718;7.328;2024-02-04T09:53:21;22.50;36.20
37456;DHT22;23316;50.718;7.328;2024-02-04T09:55:50;22.50;36.30
37456;DHT22;23316;50.718;7.328;2024-02-04T09:58:18;22.50;36.30
37456;DHT22;23316;50.718;7.328;2024-02-04T10:00:47;22.50;36.30
37456;DHT22;23316;50.718;7.328;2024-02-04T10:03:14;22.50;36.30
37456;DHT22;23316;50.718;7.328;2024-02-04T10:05:41;22.50;36.40
37456;DHT22;23316;50.718;7.328;2024-02-04T10:08:10;22.40;36.30
37456;DHT22;23316;50.718;7.328;2024-02-04T10:10:37;22.40;36.60
37456;DHT22;23316;50.718;7.328;2024-02-04T10:13:06;22.40;36.70
37456;DHT22;23316;50.718;7.328;2024-02-04T10:15:34;22.30;36.80
37456;DHT22;23316;50.718;7.328;2024-02-04T10:18:03;22.40;36.90
37456;DHT22;23316;50.718;7.328;2024-02-04T10:20:31;22.30;36.80
37456;DHT22;23316;50.718;7.328;2024-02-04T10:22:59;22.30;36.90
37456;DHT22;23316;50.718;7.328;2024-02-04T10:25:27;22.30;36.90
37456;DHT22;23316;50.718;7.328;2024-02-04T10:27:54;22.30;37.00
37456;DHT22;23316;50.718;7.328;2024-02-04T10:30:23;22.30;37.00
37456;DHT22;23316;50.718;7.328;2024-02-04T10:32:50;22.30;37.10
37456;DHT22;23316;50.718;7.328;2024-02-04T10:35:19;22.30;37.10
37456;DHT22;23316;50.718;7.328;2024-02-04T10:37:52;22.20;37.20
37456;DHT22;23316;50.718;7.328;2024-02-04T10:40:19;22.20;37.10
37456;DHT22;23316;50.718;7.328;2024-02-04T10:42:49;22.20;37.20
37456;DHT22;23316;50.718;7.328;2024-02-04T10:45:17;22.20;37.20
37456;DHT22;23316;50.718;7.328;2024-02-04T10:47:53;22.20;37.30
37456;DHT22;23316;50.718;7.328;2024-02-04T10:50:22;22.10;37.20
37456;DHT22;23316;50.718;7.328;2024-02-04T10:52:51;22.20;37.30
37456;DHT22;23316;50.718;7.328;2024-02-04T10:55:22;22.10;37.20
37456;DHT22;23316;50.718;7.328;2024-02-04T10:57:54;22.10;37.20
37456;DHT22;23316;50.718;7.328;2024-02-04T11:00:21;22.10;37.20
37456;DHT22;23316;50.718;7.328;2024-02-04T11:02:49;22.10;37.10
37456;DHT22;23316;50.718;7.328;2024-02-04T11:05:20;22.10;37.20
37456;DHT22;23316;50.718;7.328;2024-02-04T11:07:49;22.00;37.30
37456;DHT22;23316;50.718;7.328;2024-02-04T11:10:17;22.00;37.30
37456;DHT22;23316;50.718;7.328;2024-02-04T11:12:46;22.00;37.40
37456;DHT22;23316;50.718;7.328;2024-02-04T11:15:16;21.90;37.40
37456;DHT22;23316;50.718;7.328;2024-02-04T11:21:05;21.90;37.50
37456;DHT22;23316;50.718;7.328;2024-02-04T11:23:44;21.90;37.30
37456;DHT22;23316;50.718;7.328;2024-02-04T11:26:16;21.90;37.40
37456;DHT22;23316;50.718;7.328;2024-02-04T11:28:43;21.80;37.40
37456;DHT22;23316;50.718;7.328;2024-02-04T11:31:15;21.80;37.30
37456;DHT22;23316;50.718;7.328;2024-02-04T11:33:44;21.80;37.40
37456;DHT22;23316;50.718;7.328;2024-02-04T11:36:13;21.80;37.40
37456;DHT22;23316;50.718;7.328;2024-02-04T11:38:41;21.80;37.40
37456;DHT22;23316;50.718;7.328;2024-02-04T11:41:08;21.80;37.50
37456;DHT22;23316;50.718;7.328;2024-02-04T11:43:37;21.70;37.40
37456;DHT22;23316;50.718;7.328;2024-02-04T11:46:05;21.70;37.40
37456;DHT22;23316;50.718;7.328;2024-02-04T11:48:34;21.70;37.40
37456;DHT22;23316;50.718;7.328;2024-02-04T11:51:04;21.70;37.50
37456;DHT22;23316;50.718;7.328;2024-02-04T11:53:31;21.70;37.60
37456;DHT22;23316;50.718;7.328;2024-02-04T11:56:00;21.80;37.70
37456;DHT22;23316;50.718;7.328;2024-02-04T11:58:29;21.80;37.60
37456;DHT22;23316;50.718;7.328;2024-02-04T12:00:57;21.90;37.60
37456;DHT22;23316;50.718;7.328;2024-02-04T12:03:30;21.90;37.50
37456;DHT22;23316;50.718;7.328;2024-02-04T12:05:59;21.90;37.50
37456;DHT22;23316;50.718;7.328;2024-02-04T12:08:28;22.00;37.50
37456;DHT22;23316;50.718;7.328;2024-02-04T12:10:55;22.10;37.40
37456;DHT22;23316;50.718;7.328;2024-02-04T12:13:23;22.10;37.30
37456;DHT22;23316;50.718;7.328;2024-02-04T12:15:51;22.20;37.30
37456;DHT22;23316;50.718;7.328;2024-02-04T12:18:18;22.30;37.30
37456;DHT22;23316;50.718;7.328;2024-02-04T12:20:47;22.30;37.20
37456;DHT22;23316;50.718;7.328;2024-02-04T12:23:17;22.30;37.20
37456;DHT22;23316;50.718;7.328;2024-02-04T12:25:45;22.40;37.20
37456;DHT22;23316;50.718;7.328;2024-02-04T12:28:14;22.50;37.20
37456;DHT22;23316;50.718;7.328;2024-02-04T12:30:52;22.60;37.20
37456;DHT22;23316;50.718;7.328;2024-02-04T12:33:19;22.60;37.00
37456;DHT22;23316;50.718;7.328;2024-02-04T12:35:49;22.70;37.00
37456;DHT22;23316;50.718;7.328;2024-02-04T12:38:19;22.80;37.00
37456;DHT22;23316;50.718;7.328;2024-02-04T12:40:46;22.80;36.90
37456;DHT22;23316;50.718;7.328;2024-02-04T12:43:13;22.80;36.80
37456;DHT22;23316;50.718;7.328;2024-02-04T12:45:41;22.80;36.80
37456;DHT22;23316;50.718;7.328;2024-02-04T12:48:08;22.90;36.70
37456;DHT22;23316;50.718;7.328;2024-02-04T12:50:37;22.90;36.70
37456;DHT22;23316;50.718;7.328;2024-02-04T12:53:05;22.90;36.70
37456;DHT22;23316;50.718;7.328;2024-02-04T12:55:35;22.90;36.70
37456;DHT22;23316;50.718;7.328;2024-02-04T12:58:05;22.90;36.60
37456;DHT22;23316;50.718;7.328;2024-02-04T13:00:34;22.90;36.60
37456;DHT22;23316;50.718;7.328;2024-02-04T13:03:02;22.90;36.70
37456;DHT22;23316;50.718;7.328;2024-02-04T13:05:30;22.90;36.70
37456;DHT22;23316;50.718;7.328;2024-02-04T13:07:58;22.90;36.70
37456;DHT22;23316;50.718;7.328;2024-02-04T13:10:28;22.90;36.70
37456;DHT22;23316;50.718;7.328;2024-02-04T13:13:02;22.90;36.70
37456;DHT22;23316;50.718;7.328;2024-02-04T13:15:32;22.90;36.70
37456;DHT22;23316;50.718;7.328;2024-02-04T13:18:00;22.90;36.70
37456;DHT22;23316;50.718;7.328;2024-02-04T13:20:27;22.80;36.70
37456;DHT22;23316;50.718;7.328;2024-02-04T13:22:54;22.80;36.70
37456;DHT22;23316;50.718;7.328;2024-02-04T13:25:23;22.80;36.80
37456;DHT22;23316;50.718;7.328;2024-02-04T13:27:50;22.80;37.30
37456;DHT22;23316;50.718;7.328;2024-02-04T13:30:19;22.70;36.70
37456;DHT22;23316;50.718;7.328;2024-02-04T13:32:46;22.70;36.80
37456;DHT22;23316;50.718;7.328;2024-02-04T13:35:14;22.70;36.80
37456;DHT22;23316;50.718;7.328;2024-02-04T13:37:44;22.70;37.30
37456;DHT22;23316;50.718;7.328;2024-02-04T13:40:14;22.60;36.80
37456;DHT22;23316;50.718;7.328;2024-02-04T13:42:41;22.60;37.40
37456;DHT22;23316;50.718;7.328;2024-02-04T13:45:08;22.60;36.90
37456;DHT22;23316;50.718;7.328;2024-02-04T13:47:37;22.60;37.00
37456;DHT22;23316;50.718;7.328;2024-02-04T13:50:05;22.50;37.20
37456;DHT22;23316;50.718;7.328;2024-02-04T13:52:34;22.50;37.00
37456;DHT22;23316;50.718;7.328;2024-02-04T13:55:01;22.50;37.10
37456;DHT22;23316;50.718;7.328;2024-02-04T13:57:31;22.50;37.10
37456;DHT22;23316;50.718;7.328;2024-02-04T13:59:59;22.40;37.00
37456;DHT22;23316;50.718;7.328;2024-02-04T14:02:26;22.40;37.00
37456;DHT22;23316;50.718;7.328;2024-02-04T14:04:57;22.40;37.00
37456;DHT22;23316;50.718;7.328;2024-02-04T14:07:25;22.40;37.20
37456;DHT22;23316;50.718;7.328;2024-02-04T14:09:52;22.40;37.30
37456;DHT22;23316;50.718;7.328;2024-02-04T14:12:20;22.40;37.30
37456;DHT22;23316;50.718;7.328;2024-02-04T14:14:47;22.40;37.40
37456;DHT22;23316;50.718;7.328;2024-02-04T14:17:14;22.30;37.50
37456;DHT22;23316;50.718;7.328;2024-02-04T14:19:42;22.30;37.40
37456;DHT22;23316;50.718;7.328;2024-02-04T14:22:12;22.30;37.50
37456;DHT22;23316;50.718;7.328;2024-02-04T14:24:39;22.20;37.40
37456;DHT22;23316;50.718;7.328;2024-02-04T14:27:07;22.20;37.40
37456;DHT22;23316;50.718;7.328;2024-02-04T14:29:34;22.20;37.30
37456;DHT22;23316;50.718;7.328;2024-02-04T14:32:02;22.20;37.30
37456;DHT22;23316;50.718;7.328;2024-02-04T14:34:29;22.20;37.20
37456;DHT22;23316;50.718;7.328;2024-02-04T14:36:56;22.30;37.30
37456;DHT22;23316;50.718;7.328;2024-02-04T14:39:25;22.30;37.20
37456;DHT22;23316;50.718;7.328;2024-02-04T14:41:52;22.30;37.10
37456;DHT22;23316;50.718;7.328;2024-02-04T14:44:20;22.30;37.10
37456;DHT22;23316;50.718;7.328;2024-02-04T14:46:47;22.40;37.10
37456;DHT22;23316;50.718;7.328;2024-02-04T14:49:14;22.40;37.00
37456;DHT22;23316;50.718;7.328;2024-02-04T14:51:42;22.50;37.00
37456;DHT22;23316;50.718;7.328;2024-02-04T14:54:10;22.50;37.00
37456;DHT22;23316;50.718;7.328;2024-02-04T14:56:39;22.50;37.00
37456;DHT22;23316;50.718;7.328;2024-02-04T14:59:08;22.50;37.00
37456;DHT22;23316;50.718;7.328;2024-02-04T15:01:35;22.50;37.00
37456;DHT22;23316;50.718;7.328;2024-02-04T15:04:02;22.60;37.00
37456;DHT22;23316;50.718;7.328;2024-02-04T15:06:30;22.60;37.00
37456;DHT22;23316;50.718;7.328;2024-02-04T15:08:58;22.70;37.00
37456;DHT22;23316;50.718;7.328;2024-02-04T15:11:26;22.70;36.90
37456;DHT22;23316;50.718;7.328;2024-02-04T15:13:58;22.80;36.90
37456;DHT22;23316;50.718;7.328;2024-02-04T15:16:25;22.80;36.80
37456;DHT22;23316;50.718;7.328;2024-02-04T15:18:53;22.80;36.80
37456;DHT22;23316;50.718;7.328;2024-02-04T15:21:20;22.90;36.70
37456;DHT22;23316;50.718;7.328;2024-02-04T15:23:50;22.80;36.60
37456;DHT22;23316;50.718;7.328;2024-02-04T15:26:18;22.80;36.60
37456;DHT22;23316;50.718;7.328;2024-02-04T15:28:47;22.90;36.70
37456;DHT22;23316;50.718;7.328;2024-02-04T15:31:17;22.90;36.60
37456;DHT22;23316;50.718;7.328;2024-02-04T15:33:45;22.90;36.70
37456;DHT22;23316;50.718;7.328;2024-02-04T15:36:13;22.90;36.60
37456;DHT22;23316;50.718;7.328;2024-02-04T15:38:40;22.90;36.60